Terminal Aerodrome Forecast
Issued by NWS

Home | Current Version | Previous Version | Text Only | Print | Product List | Glossary On
Versions: 1 2 3 4 5 6 7 8 9 10 11 12 13 14 15 16 17
683
FTUS43 KOAX 210403 AAB
TAFBFF
TAF AMD
KBFF 210403Z 2104/2124 12008KT P6SM VCTS BKN100CB
     FM210430 33020G30KT 5SM TSRA SCT080 BKN100CB
     FM210530 12008KT P6SM VCSH BKN100
     FM210700 30006KT P6SM BKN150=

USA.gov is the U.S. government's official web portal to all federal, state and local government web resources and services.